This is the latest recevied weather packets stored in our database for station/object NW6UP. If no packets are shown the sender has not sent any weather packets the latest 10 day(s).
| Time | Temp. | Humidity | Pressure | Rain* | Wind** | Luminosity | Snow |
|---|---|---|---|---|---|---|---|
| 1788160310 | 59° F | 78% | 759.1 mmHg | 0 in | - | - | - |
| 1788159831 | 59° F | 78% | 759.1 mmHg | 0 in | - | - | - |
| 1788159590 | -0° F | 100% | 0 mmHg | 0 in | - | - | - |
| 1788159411 | -0° F | 100% | 0 mmHg | 0 in | - | - | - |
| 1788149949 | -0° F | 100% | 0 mmHg | 0 in | - | - | - |
| 1788148153 | 65° F | 70% | 758.5 mmHg | 0 in | - | - | - |
| 1788147550 | -0° F | 100% | 0 mmHg | 0 in | - | - | - |
| 1788146949 | -0° F | 100% | 0 mmHg | 0 in | - | - | - |
| 1788146350 | 66° F | 68% | 758.3 mmHg | 0 in | - | - | - |
| 1788145750 | -0° F | 100% | 0 mmHg | 0 in | - | - | - |
| 1788145150 | 67° F | 66% | 758.2 mmHg | 0 in | - | - | - |
| 1788144550 | 68° F | 64% | 0 mmHg | 0 in | - | - | - |
| 1788143952 | 68° F | 60% | 758.1 mmHg | 0 in | - | - | - |
| 1788143351 | -0° F | 100% | 0 mmHg | 0 in | - | - | - |
| 1788142151 | 70° F | 57% | 758.2 mmHg | 0 in | - | - | - |
| 1788141549 | 72° F | 55% | 0 mmHg | 0 in | - | - | - |
| 1788140950 | 73° F | 54% | 758.2 mmHg | 0 in | - | - | - |
| 1788140350 | -0° F | 100% | 0 mmHg | 0 in | - | - | - |
| 1788139752 | 72° F | 53% | 758 mmHg | 0 in | - | - | - |
| 1788138550 | 74° F | 51% | 758 mmHg | 0 in | - | - | - |
| 1788137950 | 75° F | 49% | 0 mmHg | 0 in | - | - | - |
| 1788137349 | -0° F | 100% | 0 mmHg | 0 in | - | - | - |
| 1788136750 | -0° F | 100% | 0 mmHg | 0 in | - | - | - |
| 1788136151 | -0° F | 100% | 0 mmHg | 0 in | - | - | - |
| 1788135549 | -0° F | 100% | 0 mmHg | 0 in | - | - | - |
* Rain latest hour (hover to see other rain measurements)
** Current wind speed in m/s (hover to see current wind gust speed)